createdAt,value
2017-09-08T00:00:08.417Z,6.47
2017-09-08T00:02:35.209Z,6.43
2017-09-08T00:05:01.968Z,6.20
2017-09-08T00:07:28.745Z,6.10
2017-09-08T00:09:55.562Z,6.30
2017-09-08T00:12:22.309Z,5.17
2017-09-08T00:14:49.088Z,5.90
2017-09-08T00:17:16.086Z,5.77
2017-09-08T00:19:42.854Z,5.67
2017-09-08T00:22:09.646Z,6.30
2017-09-08T00:24:36.781Z,5.80
2017-09-08T00:27:03.530Z,5.17
2017-09-08T00:29:30.310Z,6.40
2017-09-08T00:31:57.111Z,5.80
2017-09-08T00:34:23.852Z,5.97
2017-09-08T00:36:50.659Z,6.00
2017-09-08T00:39:17.458Z,6.07
2017-09-08T00:41:44.264Z,5.60
2017-09-08T00:44:11.031Z,6.60
2017-09-08T00:46:37.971Z,6.00
2017-09-08T00:49:04.724Z,6.47
2017-09-08T00:51:31.526Z,6.40
2017-09-08T00:53:58.320Z,6.53
2017-09-08T00:56:25.064Z,6.33
2017-09-08T00:58:51.828Z,6.23
2017-09-08T01:01:18.608Z,4.97
2017-09-08T01:03:45.355Z,6.17
2017-09-08T01:06:12.133Z,6.37
2017-09-08T01:08:38.952Z,6.10
2017-09-08T01:11:06.359Z,7.07
2017-09-08T01:13:33.121Z,6.23
2017-09-08T01:15:59.920Z,5.97
2017-09-08T01:18:26.706Z,5.97
2017-09-08T01:20:53.449Z,5.87
2017-09-08T01:23:20.233Z,7.37
2017-09-08T01:25:47.032Z,7.80
2017-09-08T01:28:13.809Z,7.20
2017-09-08T01:30:40.618Z,7.67
2017-09-08T01:33:07.394Z,8.00
2017-09-08T01:35:34.222Z,7.10
2017-09-08T01:38:01.046Z,8.17
2017-09-08T01:40:27.806Z,7.90
2017-09-08T01:42:54.578Z,8.00
2017-09-08T01:45:21.401Z,8.47
2017-09-08T01:47:48.726Z,8.27
2017-09-08T01:50:15.475Z,8.03
2017-09-08T01:52:42.602Z,8.03
2017-09-08T01:55:09.382Z,8.60
2017-09-08T01:57:36.147Z,8.93
2017-09-08T02:00:02.994Z,9.80
2017-09-08T02:02:30.447Z,8.30
2017-09-08T02:04:57.854Z,9.47
2017-09-08T02:07:24.974Z,9.43
2017-09-08T02:09:51.748Z,9.53
2017-09-08T02:12:18.524Z,10.47
2017-09-08T02:14:45.347Z,11.17
2017-09-08T02:17:12.111Z,9.70
2017-09-08T02:19:39.967Z,11.90
2017-09-08T02:22:11.615Z,11.80
2017-09-08T02:24:38.376Z,12.80
2017-09-08T02:27:05.142Z,10.77
2017-09-08T02:29:31.927Z,11.63
2017-09-08T02:31:58.699Z,10.63
2017-09-08T02:34:25.486Z,10.30
2017-09-08T02:36:52.286Z,11.10
2017-09-08T02:39:19.055Z,12.10
2017-09-08T02:41:45.812Z,11.87
2017-09-08T02:44:12.617Z,12.43
2017-09-08T02:46:39.398Z,11.90
2017-09-08T02:49:06.174Z,13.47
2017-09-08T02:51:33.005Z,12.80
2017-09-08T02:53:59.751Z,10.77
2017-09-08T02:56:26.508Z,10.57
2017-09-08T02:58:53.318Z,11.57
2017-09-08T03:01:20.692Z,12.73
2017-09-08T03:03:47.503Z,11.97
2017-09-08T03:06:14.346Z,11.47
2017-09-08T03:08:41.118Z,13.30
2017-09-08T03:11:07.890Z,12.30
2017-09-08T03:13:34.690Z,12.03
2017-09-08T03:16:01.488Z,13.37
2017-09-08T03:18:28.269Z,13.07
2017-09-08T03:20:55.071Z,12.60
2017-09-08T03:23:21.858Z,13.33
2017-09-08T03:25:48.607Z,12.60
2017-09-08T03:28:15.425Z,14.40
2017-09-08T03:30:42.233Z,13.50
2017-09-08T03:33:09.026Z,13.57
2017-09-08T03:35:35.818Z,13.40
2017-09-08T03:38:02.578Z,15.67
2017-09-08T03:40:29.336Z,18.27
2017-09-08T03:42:56.150Z,15.17
2017-09-08T03:45:22.923Z,18.10
2017-09-08T03:47:49.679Z,15.20
2017-09-08T03:50:16.518Z,15.33
2017-09-08T03:52:43.310Z,15.60
2017-09-08T03:55:10.059Z,15.13
2017-09-08T03:57:36.872Z,15.37
2017-09-08T04:00:03.664Z,16.00
2017-09-08T04:02:30.427Z,16.30
2017-09-08T04:04:57.246Z,14.90
2017-09-08T04:07:24.008Z,16.73
2017-09-08T04:09:50.802Z,16.50
2017-09-08T04:12:17.591Z,17.00
2017-09-08T04:14:44.375Z,18.13
2017-09-08T04:17:11.142Z,15.63
2017-09-08T04:19:37.965Z,16.80
2017-09-08T04:22:04.726Z,15.87
2017-09-08T04:24:32.210Z,17.70
2017-09-08T04:26:59.004Z,17.10
2017-09-08T04:29:25.754Z,16.93
2017-09-08T04:31:52.508Z,17.67
2017-09-08T04:34:19.299Z,15.83
2017-09-08T04:36:46.067Z,16.47
2017-09-08T04:39:12.819Z,16.37
2017-09-08T04:41:39.626Z,15.30
2017-09-08T04:44:06.461Z,15.77
2017-09-08T04:46:33.223Z,16.77
2017-09-08T04:49:00.781Z,17.13
2017-09-08T04:51:27.548Z,14.93
2017-09-08T04:53:54.303Z,15.10
2017-09-08T04:56:21.134Z,17.00
2017-09-08T04:58:47.988Z,14.10
2017-09-08T05:01:14.753Z,15.00
2017-09-08T05:03:41.590Z,15.87
2017-09-08T05:06:09.149Z,16.27
2017-09-08T05:08:35.912Z,16.97
2017-09-08T05:11:02.714Z,16.60
2017-09-08T05:13:29.574Z,16.47
2017-09-08T05:15:56.359Z,14.67
2017-09-08T05:18:23.186Z,12.87
2017-09-08T05:20:49.941Z,15.50
2017-09-08T05:23:16.699Z,14.43
2017-09-08T05:25:43.513Z,16.30
2017-09-08T05:28:10.264Z,15.20
2017-09-08T05:30:37.019Z,15.60
2017-09-08T05:33:04.147Z,16.57
2017-09-08T05:35:30.911Z,16.07
2017-09-08T05:37:57.698Z,18.40
2017-09-08T05:40:24.487Z,16.70
2017-09-08T05:42:51.265Z,16.47
2017-09-08T05:45:18.045Z,17.73
2017-09-08T05:47:44.862Z,17.73
2017-09-08T05:50:11.667Z,17.83
2017-09-08T05:52:38.457Z,17.90
2017-09-08T05:55:05.271Z,17.47
2017-09-08T05:57:32.055Z,17.30
2017-09-08T05:59:58.859Z,16.43
2017-09-08T06:02:25.664Z,16.70
2017-09-08T06:04:52.493Z,17.07
2017-09-08T06:07:19.309Z,15.73
2017-09-08T06:09:46.128Z,17.30
2017-09-08T06:12:12.898Z,14.83
2017-09-08T06:14:39.689Z,16.50
2017-09-08T06:17:06.529Z,16.40
2017-09-08T06:19:33.309Z,14.50
2017-09-08T06:22:00.068Z,14.80
2017-09-08T06:24:26.872Z,16.33
2017-09-08T06:26:53.658Z,15.30
2017-09-08T06:29:20.477Z,14.63
2017-09-08T06:31:47.274Z,14.63
2017-09-08T06:34:14.083Z,15.37
2017-09-08T06:36:41.845Z,13.60
2017-09-08T06:39:08.870Z,15.50
2017-09-08T06:41:35.643Z,15.83
2017-09-08T06:44:02.391Z,16.03
2017-09-08T06:46:29.531Z,16.37
2017-09-08T06:48:56.327Z,13.90
2017-09-08T06:51:23.127Z,15.17
2017-09-08T06:53:49.920Z,15.07
2017-09-08T06:56:16.703Z,13.67
2017-09-08T06:58:43.820Z,16.60
2017-09-08T07:01:10.633Z,15.00
2017-09-08T07:03:37.434Z,15.60
2017-09-08T07:06:04.216Z,13.40
2017-09-08T07:08:31.029Z,13.00
2017-09-08T07:10:57.817Z,13.47
2017-09-08T07:13:24.635Z,13.80
2017-09-08T07:15:51.423Z,12.50
2017-09-08T07:18:18.178Z,12.77
2017-09-08T07:20:44.940Z,14.30
2017-09-08T07:23:11.774Z,14.63
2017-09-08T07:25:38.538Z,13.63
2017-09-08T07:28:06.080Z,15.43
2017-09-08T07:30:32.915Z,11.90
2017-09-08T07:32:59.708Z,15.43
2017-09-08T07:35:26.494Z,13.70
2017-09-08T07:37:53.415Z,14.40
2017-09-08T07:40:20.233Z,14.67
2017-09-08T07:42:47.003Z,13.30
2017-09-08T07:45:13.814Z,15.33
2017-09-08T07:47:40.611Z,14.30
2017-09-08T07:50:07.400Z,13.90
2017-09-08T07:52:34.188Z,14.27
2017-09-08T07:55:00.955Z,13.10
2017-09-08T07:57:27.753Z,15.30
2017-09-08T07:59:54.567Z,14.00
2017-09-08T08:02:21.324Z,13.67
2017-09-08T08:04:48.102Z,12.70
2017-09-08T08:07:14.951Z,12.63
2017-09-08T08:09:42.465Z,13.27
2017-09-08T08:12:09.227Z,14.20
2017-09-08T08:14:36.408Z,14.80
2017-09-08T08:17:03.168Z,14.53
2017-09-08T08:19:29.949Z,15.67
2017-09-08T08:21:56.768Z,15.10
2017-09-08T08:24:24.352Z,19.47
2017-09-08T08:26:51.155Z,14.00
2017-09-08T08:29:17.955Z,14.27
2017-09-08T08:31:44.739Z,15.17
2017-09-08T08:34:11.507Z,13.83
2017-09-08T08:36:38.357Z,15.13
2017-09-08T08:39:05.123Z,14.17
2017-09-08T08:41:31.882Z,15.00
2017-09-08T08:43:58.680Z,15.73
2017-09-08T08:46:25.463Z,15.07
2017-09-08T08:48:52.243Z,15.60
2017-09-08T08:51:19.060Z,14.93
2017-09-08T08:53:45.825Z,14.80
2017-09-08T08:56:12.607Z,14.10
2017-09-08T08:58:39.399Z,14.33
2017-09-08T09:01:06.538Z,13.90
2017-09-08T09:03:33.300Z,13.20
2017-09-08T09:06:00.131Z,14.63
2017-09-08T09:08:27.637Z,13.73
2017-09-08T09:10:54.396Z,13.83
2017-09-08T09:13:21.210Z,12.97
2017-09-08T09:15:47.982Z,13.00
2017-09-08T09:18:14.743Z,12.27
2017-09-08T09:20:41.555Z,12.00
2017-09-08T09:23:08.336Z,12.60
2017-09-08T09:25:35.112Z,12.53
2017-09-08T09:28:02.498Z,11.47
2017-09-08T09:30:29.256Z,12.03
2017-09-08T09:32:56.007Z,11.77
2017-09-08T09:35:22.822Z,10.30
2017-09-08T09:37:49.578Z,10.23
2017-09-08T09:40:16.349Z,9.00
2017-09-08T09:42:43.150Z,9.73
2017-09-08T09:45:09.943Z,10.27
2017-09-08T09:47:36.707Z,10.57
2017-09-08T09:50:03.504Z,9.97
2017-09-08T09:52:30.247Z,9.70
2017-09-08T09:54:57.015Z,8.50
2017-09-08T09:57:23.814Z,7.60
2017-09-08T09:59:50.561Z,9.40
2017-09-08T10:02:17.336Z,9.27
2017-09-08T10:04:44.120Z,8.67
2017-09-08T10:07:10.911Z,6.77
2017-09-08T10:09:37.682Z,7.63
2017-09-08T10:12:04.483Z,7.40
2017-09-08T10:14:31.320Z,6.83
2017-09-08T10:16:58.078Z,8.10
2017-09-08T10:19:24.868Z,7.10
2017-09-08T10:21:51.624Z,5.87
2017-09-08T10:24:18.363Z,6.60
2017-09-08T10:26:45.144Z,6.30
2017-09-08T10:29:11.924Z,6.50
2017-09-08T10:31:38.694Z,7.00
2017-09-08T10:34:05.512Z,8.03
2017-09-08T10:36:32.278Z,7.63
2017-09-08T10:38:59.050Z,7.03
2017-09-08T10:41:25.867Z,7.53
2017-09-08T10:43:52.643Z,8.33
2017-09-08T10:46:19.422Z,6.73
2017-09-08T10:48:46.585Z,9.50
2017-09-08T10:51:13.344Z,6.77
2017-09-08T10:53:40.110Z,6.87
2017-09-08T10:56:06.931Z,8.37
2017-09-08T10:58:33.706Z,6.60
2017-09-08T11:01:00.470Z,7.47
2017-09-08T11:03:27.292Z,7.23
2017-09-08T11:05:54.060Z,7.20
2017-09-08T11:08:20.813Z,7.60
2017-09-08T11:10:47.630Z,9.10
2017-09-08T11:13:14.392Z,8.00
2017-09-08T11:15:41.139Z,8.20
2017-09-08T11:18:07.940Z,8.00
2017-09-08T11:20:35.450Z,8.00
2017-09-08T11:23:02.285Z,8.80
2017-09-08T11:25:29.103Z,8.13
2017-09-08T11:27:55.860Z,6.07
2017-09-08T11:30:22.604Z,6.50
2017-09-08T11:32:55.161Z,7.00
2017-09-08T11:35:27.678Z,6.50
2017-09-08T11:37:54.442Z,6.00
2017-09-08T11:40:21.235Z,6.40
2017-09-08T11:42:48.100Z,4.17
2017-09-08T11:45:14.865Z,6.70
2017-09-08T11:47:41.684Z,5.63
2017-09-08T11:50:08.528Z,4.30
2017-09-08T11:52:35.291Z,5.03
2017-09-08T11:55:02.096Z,6.70
2017-09-08T11:57:28.896Z,5.00
2017-09-08T11:59:55.682Z,5.50
2017-09-08T12:02:22.480Z,3.20
2017-09-08T12:04:49.252Z,5.73
2017-09-08T12:07:16.023Z,4.83
2017-09-08T12:09:42.839Z,4.50
2017-09-08T12:12:09.625Z,6.13
2017-09-08T12:14:36.602Z,4.07
2017-09-08T12:17:03.405Z,5.50
2017-09-08T12:19:30.884Z,4.30
2017-09-08T12:21:57.644Z,5.70
2017-09-08T12:24:24.483Z,2.33
2017-09-08T12:26:51.238Z,4.80
2017-09-08T12:29:18.376Z,6.10
2017-09-08T12:31:45.146Z,5.80
2017-09-08T12:34:11.884Z,6.12
2017-09-08T12:36:38.627Z,6.40
2017-09-08T12:39:05.457Z,6.50
2017-09-08T12:41:32.598Z,3.43
2017-09-08T12:43:59.967Z,5.43
2017-09-08T12:46:26.792Z,4.20
2017-09-08T12:48:53.557Z,5.00
2017-09-08T12:51:20.332Z,5.63
2017-09-08T12:53:47.139Z,6.30
2017-09-08T12:56:13.914Z,4.47
2017-09-08T12:58:40.684Z,6.03
2017-09-08T13:01:07.488Z,4.77
2017-09-08T13:03:34.254Z,4.33
2017-09-08T13:06:00.995Z,4.83
2017-09-08T13:08:27.779Z,5.60
2017-09-08T13:10:54.532Z,5.70
2017-09-08T13:13:21.316Z,4.67
2017-09-08T13:15:48.107Z,4.93
2017-09-08T13:18:14.942Z,5.87
2017-09-08T13:20:42.202Z,5.77
2017-09-08T13:23:08.999Z,5.90
2017-09-08T13:25:35.762Z,6.17
2017-09-08T13:28:02.529Z,5.43
2017-09-08T13:30:29.360Z,5.50
2017-09-08T13:32:56.139Z,4.70
2017-09-08T13:35:22.898Z,6.10
2017-09-08T13:37:49.694Z,5.87
2017-09-08T13:40:16.460Z,5.10
2017-09-08T13:42:43.222Z,6.43
2017-09-08T13:45:10.007Z,4.73
2017-09-08T13:47:36.792Z,5.57
2017-09-08T13:50:03.595Z,5.90
2017-09-08T13:52:30.418Z,6.40
2017-09-08T13:54:57.216Z,5.53
2017-09-08T13:57:23.987Z,5.00
2017-09-08T13:59:50.795Z,4.33
2017-09-08T14:02:17.568Z,5.20
2017-09-08T14:04:44.809Z,4.77
2017-09-08T14:07:11.607Z,4.67
2017-09-08T14:09:38.422Z,5.40
2017-09-08T14:12:05.235Z,5.50
2017-09-08T14:14:32.035Z,4.80
2017-09-08T14:16:58.962Z,5.23
2017-09-08T14:19:25.742Z,5.33
2017-09-08T14:21:52.563Z,4.67
2017-09-08T14:24:19.947Z,4.83
2017-09-08T14:26:46.707Z,4.97
2017-09-08T14:29:13.499Z,4.73
2017-09-08T14:31:40.271Z,5.30
2017-09-08T14:34:07.283Z,3.27
2017-09-08T14:36:34.115Z,4.07
2017-09-08T14:39:00.897Z,3.90
2017-09-08T14:41:27.674Z,4.50
2017-09-08T14:43:54.449Z,3.63
2017-09-08T14:46:21.876Z,3.90
2017-09-08T14:48:49.641Z,4.03
2017-09-08T14:51:16.446Z,4.00
2017-09-08T14:53:43.207Z,3.60
2017-09-08T14:56:09.955Z,3.63
2017-09-08T14:58:36.810Z,3.87
2017-09-08T15:01:03.571Z,4.20
2017-09-08T15:03:30.383Z,3.63
2017-09-08T15:05:57.211Z,3.87
2017-09-08T15:08:24.003Z,3.70
2017-09-08T15:10:50.772Z,3.70
2017-09-08T15:13:17.544Z,3.73
2017-09-08T15:15:44.405Z,3.30
2017-09-08T15:18:11.170Z,4.60
2017-09-08T15:20:38.004Z,3.80
2017-09-08T15:23:05.128Z,4.40
2017-09-08T15:25:31.916Z,3.37
2017-09-08T15:27:59.354Z,4.27
2017-09-08T15:30:26.140Z,4.97
2017-09-08T15:32:52.882Z,5.13
2017-09-08T15:35:19.696Z,5.10
2017-09-08T15:37:46.460Z,4.03
2017-09-08T15:40:13.254Z,5.77
2017-09-08T15:42:40.078Z,4.70
2017-09-08T15:45:06.834Z,4.50
2017-09-08T15:47:33.591Z,4.63
2017-09-08T15:50:00.371Z,4.90
2017-09-08T15:52:27.110Z,5.50
2017-09-08T15:54:53.875Z,5.40
2017-09-08T15:57:20.696Z,5.60
2017-09-08T15:59:47.431Z,5.90
2017-09-08T16:02:14.194Z,6.03
2017-09-08T16:04:41.026Z,5.40
2017-09-08T16:07:07.806Z,5.50
2017-09-08T16:09:34.668Z,5.97
2017-09-08T16:12:01.467Z,4.70
2017-09-08T16:14:28.242Z,4.07
2017-09-08T16:16:55.307Z,3.50
2017-09-08T16:19:22.146Z,4.50
2017-09-08T16:21:48.924Z,2.67
2017-09-08T16:24:15.694Z,3.20
2017-09-08T16:26:42.812Z,3.30
2017-09-08T16:29:09.579Z,2.37
2017-09-08T16:31:36.350Z,2.10
2017-09-08T16:34:03.165Z,2.00
2017-09-08T16:36:29.929Z,1.80
2017-09-08T16:38:56.692Z,1.87
2017-09-08T16:41:23.474Z,2.30
2017-09-08T16:43:50.236Z,1.60
2017-09-08T16:46:17.097Z,2.43
2017-09-08T16:48:43.883Z,2.63
2017-09-08T16:51:10.632Z,2.40
2017-09-08T16:53:37.411Z,2.47
2017-09-08T16:56:04.200Z,1.97
2017-09-08T16:58:31.015Z,2.20
2017-09-08T17:00:57.809Z,1.83
2017-09-08T17:03:24.600Z,3.03
2017-09-08T17:05:51.370Z,2.53
2017-09-08T17:08:18.133Z,2.60
2017-09-08T17:13:56.061Z,2.70
2017-09-08T17:16:22.831Z,2.70
2017-09-08T17:18:49.575Z,2.20
2017-09-08T17:21:16.370Z,2.90
2017-09-08T17:23:43.134Z,3.50
2017-09-08T17:26:09.907Z,2.90
2017-09-08T17:28:36.763Z,2.90
2017-09-08T17:31:03.507Z,3.33
2017-09-08T17:33:30.276Z,3.23
2017-09-08T17:35:57.089Z,3.60
2017-09-08T17:38:23.831Z,3.97
2017-09-08T17:40:50.569Z,3.50
2017-09-08T17:43:17.407Z,4.13
2017-09-08T17:45:44.173Z,3.90
2017-09-08T17:48:10.924Z,4.97
2017-09-08T17:50:37.699Z,4.80
2017-09-08T17:53:04.444Z,4.70
2017-09-08T17:55:31.209Z,4.40
2017-09-08T17:57:57.983Z,4.70
2017-09-08T18:00:24.758Z,5.77
2017-09-08T18:02:51.495Z,6.03
2017-09-08T18:05:18.298Z,5.20
2017-09-08T18:07:45.045Z,6.27
2017-09-08T18:10:11.815Z,6.03
2017-09-08T18:12:38.591Z,5.47
2017-09-08T18:15:05.327Z,6.30
2017-09-08T18:17:32.079Z,7.47
2017-09-08T18:19:58.869Z,6.20
2017-09-08T18:22:25.622Z,6.30
2017-09-08T18:24:52.435Z,5.63
2017-09-08T18:27:19.255Z,6.97
2017-09-08T18:29:46.017Z,7.40
2017-09-08T18:32:12.793Z,7.33
2017-09-08T18:34:39.584Z,7.47
2017-09-08T18:37:06.333Z,8.00
2017-09-08T18:39:33.118Z,8.07
2017-09-08T18:41:59.933Z,9.23
2017-09-08T18:44:26.707Z,7.93
2017-09-08T18:46:53.455Z,8.83
2017-09-08T18:49:20.253Z,10.60
2017-09-08T18:51:47.015Z,9.57
2017-09-08T18:54:13.794Z,9.70
2017-09-08T18:56:40.588Z,10.20
2017-09-08T18:59:07.356Z,10.33
2017-09-08T19:01:34.108Z,8.90
2017-09-08T19:04:00.911Z,9.93
2017-09-08T19:06:27.660Z,8.83
2017-09-08T19:08:54.471Z,11.10
2017-09-08T19:11:21.274Z,10.10
2017-09-08T19:13:48.042Z,10.27
2017-09-08T19:16:14.818Z,10.10
2017-09-08T19:18:41.605Z,10.37
2017-09-08T19:21:08.390Z,10.13
2017-09-08T19:23:35.136Z,10.60
2017-09-08T19:26:01.920Z,10.93
2017-09-08T19:28:28.668Z,10.80
2017-09-08T19:30:55.458Z,10.40
2017-09-08T19:33:22.245Z,10.33
2017-09-08T19:35:48.992Z,9.80
2017-09-08T19:38:15.758Z,9.90
2017-09-08T19:40:42.536Z,9.97
2017-09-08T19:43:09.327Z,8.70
2017-09-08T19:45:36.119Z,8.97
2017-09-08T19:48:02.933Z,10.07
2017-09-08T19:50:29.694Z,7.93
2017-09-08T19:52:56.540Z,7.70
2017-09-08T19:55:23.341Z,9.43
2017-09-08T19:57:50.128Z,8.50
2017-09-08T20:00:16.911Z,9.20
2017-09-08T20:02:43.709Z,8.37
2017-09-08T20:05:10.479Z,8.57
2017-09-08T20:07:37.224Z,8.67
2017-09-08T20:10:04.094Z,8.20
2017-09-08T20:12:30.857Z,8.67
2017-09-08T20:14:57.614Z,7.23
2017-09-08T20:17:24.445Z,8.27
2017-09-08T20:19:51.187Z,6.43
2017-09-08T20:22:17.942Z,7.63
2017-09-08T20:24:44.738Z,8.20
2017-09-08T20:27:11.496Z,8.03
2017-09-08T20:29:38.260Z,6.90
2017-09-08T20:32:05.054Z,6.73
2017-09-08T20:34:31.838Z,7.40
2017-09-08T20:36:58.602Z,6.73
2017-09-08T20:39:25.404Z,6.47
2017-09-08T20:41:52.164Z,7.43
2017-09-08T20:44:18.930Z,6.80
2017-09-08T20:46:45.731Z,7.77
2017-09-08T20:49:12.498Z,6.67
2017-09-08T20:51:39.242Z,6.97
2017-09-08T20:54:06.028Z,6.80
2017-09-08T20:56:32.773Z,6.17
2017-09-08T20:58:59.575Z,5.80
2017-09-08T21:01:26.385Z,4.53
2017-09-08T21:03:53.166Z,6.07
2017-09-08T21:06:19.978Z,4.50
2017-09-08T21:08:46.784Z,5.80
2017-09-08T21:11:13.536Z,5.77
2017-09-08T21:13:40.298Z,7.10
2017-09-08T21:16:07.087Z,7.10
2017-09-08T21:18:33.838Z,6.97
2017-09-08T21:21:00.595Z,6.97
2017-09-08T21:23:27.398Z,8.53
2017-09-08T21:25:54.141Z,8.70
2017-09-08T21:28:20.897Z,8.90
2017-09-08T21:30:47.679Z,10.03
2017-09-08T21:33:14.441Z,9.80
2017-09-08T21:35:41.214Z,10.37
2017-09-08T21:38:08.038Z,11.80
2017-09-08T21:40:34.820Z,12.27
2017-09-08T21:43:01.590Z,11.40
2017-09-08T21:45:28.388Z,10.70
2017-09-08T21:47:55.139Z,11.80
2017-09-08T21:50:21.901Z,13.63
2017-09-08T21:52:48.736Z,13.07
2017-09-08T21:55:15.479Z,11.27
2017-09-08T21:57:42.235Z,11.77
2017-09-08T22:00:09.025Z,10.97
2017-09-08T22:02:37.899Z,12.57
2017-09-08T22:05:04.691Z,10.13
2017-09-08T22:07:31.500Z,11.73
2017-09-08T22:09:58.299Z,11.90
2017-09-08T22:12:25.119Z,11.60
2017-09-08T22:14:51.943Z,10.70
2017-09-08T22:17:18.713Z,11.27
2017-09-08T22:19:45.487Z,11.60
2017-09-08T22:22:12.292Z,12.20
2017-09-08T22:24:39.074Z,10.13
2017-09-08T22:27:05.849Z,13.40
2017-09-08T22:29:32.644Z,13.07
2017-09-08T22:31:59.424Z,13.03
2017-09-08T22:34:26.196Z,13.93
2017-09-08T22:36:52.978Z,13.70
2017-09-08T22:39:19.736Z,13.33
2017-09-08T22:41:46.527Z,13.07
2017-09-08T22:44:13.319Z,13.87
2017-09-08T22:46:40.063Z,13.87
2017-09-08T22:49:06.811Z,13.83
2017-09-08T22:51:33.649Z,12.67
2017-09-08T22:54:00.466Z,12.93
2017-09-08T22:56:27.282Z,13.70
2017-09-08T22:58:54.115Z,14.67
2017-09-08T23:01:20.984Z,14.40
2017-09-08T23:03:47.783Z,14.40
2017-09-08T23:06:14.564Z,13.00
2017-09-08T23:08:41.304Z,13.70
2017-09-08T23:11:08.048Z,12.83
2017-09-08T23:13:34.862Z,12.77
2017-09-08T23:16:01.627Z,14.10
2017-09-08T23:18:28.398Z,13.27
2017-09-08T23:20:55.200Z,12.73
2017-09-08T23:23:21.962Z,13.13
2017-09-08T23:25:48.713Z,13.97
2017-09-08T23:28:15.507Z,13.63
2017-09-08T23:30:42.267Z,13.70
2017-09-08T23:33:09.011Z,13.00
2017-09-08T23:35:35.903Z,13.47
2017-09-08T23:38:02.679Z,13.07
2017-09-08T23:40:29.450Z,12.00
2017-09-08T23:42:56.262Z,11.43
2017-09-08T23:45:23.034Z,12.60
2017-09-08T23:47:49.783Z,10.90
2017-09-08T23:50:16.572Z,9.83
2017-09-08T23:52:43.312Z,8.87
2017-09-08T23:55:10.050Z,9.33
2017-09-08T23:57:36.855Z,9.97
